KCHS/CHS METAR and TAF weather

Enter ICAO airport designator
Station Type Date Time Source
KCHS METAR 2021/02/25 01:56 UTC NOAA

KCHS 250156Z 21007KT 10SM CLR 11/04 A3010 RMK AO2 SLP191 T01110044 $


Station Type Date Time Source
KCHS Decoded METAR 2021/02/25 01:56 UTC NOAA

CHARLESTON INT'L AIRPORT, SC, United States (KCHS) 32-54N 080-02W 13M
Feb 24, 2021 - 08:56 PM EST / 2021.02.25 0156 UTC
Wind: from the SSW (210 degrees) at 8 MPH (7 KT):0
Visibility: 10 mile(s):0
Sky conditions: clear
Temperature: 52.0 F (11.1 C)
Dew Point: 39.9 F (4.4 C)
Relative Humidity: 63%
Pressure (altimeter): 30.1 in. Hg (1019 hPa)
ob: KCHS 250156Z 21007KT 10SM CLR 11/04 A3010 RMK AO2 SLP191 T01110044
cycle: 2

Station Type Date Time Source
KCHS TAF 2021/02/24 18:45 UTC NOAA

TAF KCHS 241739Z 2418/2518 22008G16KT P6SM SKC
FM250000 23003KT P6SM SKC
FM251600 28006KT P6SM SKC

Example: see airport list